createdAt,value
2022-08-19T00:00:55.069Z,19.30
2022-08-19T00:01:55.149Z,19.31
2022-08-19T00:02:55.597Z,19.32
2022-08-19T00:03:55.315Z,19.30
2022-08-19T00:04:55.417Z,19.24
2022-08-19T00:05:55.466Z,19.21
2022-08-19T00:06:55.550Z,19.16
2022-08-19T00:07:55.633Z,19.12
2022-08-19T00:08:55.757Z,19.09
2022-08-19T00:09:56.866Z,19.09
2022-08-19T00:10:55.890Z,19.05
2022-08-19T00:11:55.950Z,19.01
2022-08-19T00:12:56.071Z,19.01
2022-08-19T00:13:56.339Z,19.01
2022-08-19T00:14:56.234Z,18.97
2022-08-19T00:15:56.308Z,18.96
2022-08-19T00:16:56.418Z,18.96
2022-08-19T00:17:56.490Z,18.93
2022-08-19T00:18:56.709Z,18.94
2022-08-19T00:19:56.667Z,18.94
2022-08-19T00:20:56.768Z,18.94
2022-08-19T00:21:56.839Z,18.96
2022-08-19T00:22:56.942Z,18.96
2022-08-19T00:23:57.029Z,18.96
2022-08-19T00:24:57.102Z,18.96
2022-08-19T00:25:57.182Z,18.94
2022-08-19T00:26:57.276Z,18.93
2022-08-19T00:27:57.364Z,18.93
2022-08-19T00:28:57.442Z,18.96
2022-08-19T00:29:57.525Z,18.94
2022-08-19T00:30:57.627Z,18.94
2022-08-19T00:31:57.702Z,18.96
2022-08-19T00:32:57.807Z,18.94
2022-08-19T00:33:57.898Z,18.93
2022-08-19T00:34:57.978Z,18.93
2022-08-19T00:35:58.054Z,18.91
2022-08-19T00:36:58.159Z,18.90
2022-08-19T00:37:58.236Z,18.89
2022-08-19T00:38:58.364Z,18.89
2022-08-19T00:39:58.431Z,18.89
2022-08-19T00:40:58.499Z,18.87
2022-08-19T00:41:58.575Z,18.89
2022-08-19T00:42:58.666Z,18.87
2022-08-19T00:43:58.861Z,18.86
2022-08-19T00:44:58.841Z,18.89
2022-08-19T00:45:58.953Z,18.83
2022-08-19T00:46:58.999Z,18.83
2022-08-19T00:47:59.096Z,18.83
2022-08-19T00:48:59.188Z,18.83
2022-08-19T00:49:59.261Z,18.82
2022-08-19T00:50:59.337Z,18.74
2022-08-19T00:51:59.439Z,18.69
2022-08-19T00:52:59.511Z,18.69
2022-08-19T00:53:59.639Z,18.69
2022-08-19T00:54:59.667Z,18.71
2022-08-19T00:55:59.771Z,18.68
2022-08-19T00:56:59.857Z,18.71
2022-08-19T00:57:59.957Z,18.71
2022-08-19T00:59:00.044Z,18.71
2022-08-19T01:00:02.194Z,18.71
2022-08-19T01:01:00.179Z,18.69
2022-08-19T01:02:00.306Z,18.68
2022-08-19T01:03:00.355Z,18.59
2022-08-19T01:04:00.471Z,18.53
2022-08-19T01:05:00.532Z,18.46
2022-08-19T01:06:00.638Z,18.46
2022-08-19T01:07:00.717Z,18.44
2022-08-19T01:08:00.818Z,18.44
2022-08-19T01:09:00.915Z,18.42
2022-08-19T01:10:00.987Z,18.44
2022-08-19T01:11:01.067Z,18.42
2022-08-19T01:12:01.169Z,18.38
2022-08-19T01:13:01.248Z,18.38
2022-08-19T01:14:01.364Z,18.35
2022-08-19T01:15:01.423Z,18.35
2022-08-19T01:16:01.531Z,18.34
2022-08-19T01:17:01.607Z,18.34
2022-08-19T01:18:01.714Z,18.34
2022-08-19T01:19:01.816Z,18.35
2022-08-19T01:20:01.884Z,18.35
2022-08-19T01:21:01.961Z,18.34
2022-08-19T01:22:13.963Z,18.34
2022-08-19T01:23:02.153Z,18.34
2022-08-19T01:24:02.265Z,18.32
2022-08-19T01:25:02.323Z,18.28
2022-08-19T01:26:02.382Z,18.19
2022-08-19T01:27:02.457Z,18.16
2022-08-19T01:28:09.267Z,18.14
2022-08-19T01:29:02.658Z,18.13
2022-08-19T01:30:02.704Z,18.07
2022-08-19T01:31:08.132Z,18.09
2022-08-19T01:32:02.881Z,18.09
2022-08-19T01:33:02.944Z,18.09
2022-08-19T01:34:04.794Z,18.09
2022-08-19T01:35:03.212Z,18.10
2022-08-19T01:36:03.187Z,18.10
2022-08-19T01:37:03.252Z,18.10
2022-08-19T01:38:03.362Z,18.10
2022-08-19T01:39:03.451Z,18.10
2022-08-19T01:40:08.868Z,18.10
2022-08-19T01:41:03.611Z,18.09
2022-08-19T01:42:03.711Z,18.09
2022-08-19T01:43:03.783Z,18.09
2022-08-19T01:44:17.996Z,18.10
2022-08-19T01:45:04.000Z,18.09
2022-08-19T01:46:04.068Z,18.09
2022-08-19T01:47:04.144Z,18.07
2022-08-19T01:48:04.250Z,18.07
2022-08-19T01:49:04.325Z,18.07
2022-08-19T01:50:04.457Z,18.04
2022-08-19T01:51:04.504Z,18.02
2022-08-19T01:52:04.590Z,18.02
2022-08-19T01:53:06.753Z,18.02
2022-08-19T01:54:04.762Z,18.04
2022-08-19T01:55:04.866Z,18.05
2022-08-19T01:56:04.933Z,18.04
2022-08-19T01:57:05.012Z,18.05
2022-08-19T01:58:05.119Z,18.05
2022-08-19T01:59:05.190Z,18.05
2022-08-19T02:00:05.312Z,18.05
2022-08-19T02:01:05.413Z,18.05
2022-08-19T02:02:05.439Z,18.04
2022-08-19T02:03:05.514Z,18.04
2022-08-19T02:04:05.622Z,18.04
2022-08-19T02:05:05.710Z,18.01
2022-08-19T02:06:05.785Z,18.01
2022-08-19T02:07:05.861Z,17.99
2022-08-19T02:08:05.962Z,17.99
2022-08-19T02:09:06.037Z,17.99
2022-08-19T02:10:08.921Z,17.98
2022-08-19T02:11:06.208Z,17.91
2022-08-19T02:12:06.276Z,17.84
2022-08-19T02:13:06.356Z,17.81
2022-08-19T02:14:06.458Z,17.77
2022-08-19T02:15:06.550Z,17.76
2022-08-19T02:16:06.623Z,17.73
2022-08-19T02:17:06.699Z,17.70
2022-08-19T02:18:06.801Z,17.65
2022-08-19T02:19:06.861Z,17.65
2022-08-19T02:20:06.982Z,17.63
2022-08-19T02:21:07.018Z,17.65
2022-08-19T02:22:07.126Z,17.65
2022-08-19T02:23:13.604Z,17.65
2022-08-19T02:24:07.307Z,17.66
2022-08-19T02:25:07.391Z,17.70
2022-08-19T02:26:07.450Z,17.68
2022-08-19T02:27:07.514Z,17.70
2022-08-19T02:28:07.620Z,17.70
2022-08-19T02:29:07.733Z,17.73
2022-08-19T02:30:07.807Z,17.74
2022-08-19T02:31:07.843Z,17.76
2022-08-19T02:32:07.947Z,17.76
2022-08-19T02:33:08.029Z,17.74
2022-08-19T02:34:08.128Z,17.73
2022-08-19T02:35:12.222Z,17.70
2022-08-19T02:36:08.302Z,17.68
2022-08-19T02:37:08.378Z,17.71
2022-08-19T02:38:08.481Z,17.70
2022-08-19T02:39:08.556Z,17.70
2022-08-19T02:40:12.258Z,17.68
2022-08-19T02:41:08.712Z,17.68
2022-08-19T02:42:08.814Z,17.68
2022-08-19T02:43:08.894Z,17.68
2022-08-19T02:44:29.566Z,17.68
2022-08-19T02:45:09.112Z,17.66
2022-08-19T02:46:09.174Z,17.68
2022-08-19T02:47:09.237Z,17.68
2022-08-19T02:48:14.953Z,17.70
2022-08-19T02:49:09.417Z,17.70
2022-08-19T02:50:09.534Z,17.68
2022-08-19T02:51:09.572Z,17.66
2022-08-19T02:52:09.675Z,17.68
2022-08-19T02:53:09.760Z,17.66
2022-08-19T02:54:09.867Z,17.65
2022-08-19T02:55:09.961Z,17.66
2022-08-19T02:56:10.034Z,17.65
2022-08-19T02:57:10.109Z,17.65
2022-08-19T02:58:10.219Z,17.65
2022-08-19T02:59:11.102Z,17.63
2022-08-19T03:00:10.387Z,17.63
2022-08-19T03:01:10.478Z,17.63
2022-08-19T03:02:10.532Z,17.62
2022-08-19T03:03:10.616Z,17.63
2022-08-19T03:04:10.723Z,17.62
2022-08-19T03:05:10.821Z,17.62
2022-08-19T03:06:10.888Z,17.63
2022-08-19T03:07:11.452Z,17.63
2022-08-19T03:08:11.059Z,17.62
2022-08-19T03:09:11.120Z,17.65
2022-08-19T03:10:11.248Z,17.63
2022-08-19T03:11:11.287Z,17.62
2022-08-19T03:12:11.390Z,17.62
2022-08-19T03:13:11.467Z,17.63
2022-08-19T03:14:11.551Z,17.60
2022-08-19T03:15:11.639Z,17.63
2022-08-19T03:16:11.707Z,17.58
2022-08-19T03:17:11.784Z,17.53
2022-08-19T03:18:11.887Z,17.51
2022-08-19T03:19:11.968Z,17.46
2022-08-19T03:20:12.077Z,17.43
2022-08-19T03:21:12.561Z,17.40
2022-08-19T03:22:12.209Z,17.39
2022-08-19T03:23:12.285Z,17.38
2022-08-19T03:24:12.392Z,17.38
2022-08-19T03:25:12.470Z,17.36
2022-08-19T03:26:16.612Z,17.39
2022-08-19T03:27:12.617Z,17.33
2022-08-19T03:28:12.715Z,17.36
2022-08-19T03:29:13.194Z,17.36
2022-08-19T03:30:12.893Z,17.35
2022-08-19T03:31:43.424Z,17.36
2022-08-19T03:32:31.663Z,17.33
2022-08-19T03:33:15.850Z,17.25
2022-08-19T03:34:13.196Z,17.18
2022-08-19T03:35:13.256Z,17.20
2022-08-19T03:36:13.328Z,17.22
2022-08-19T03:37:13.433Z,17.20
2022-08-19T03:38:13.486Z,17.18
2022-08-19T03:39:13.563Z,17.17
2022-08-19T03:40:16.471Z,17.20
2022-08-19T03:41:13.742Z,17.22
2022-08-19T03:42:38.841Z,17.27
2022-08-19T03:43:13.936Z,17.27
2022-08-19T03:44:17.702Z,17.30
2022-08-19T03:45:14.081Z,17.30
2022-08-19T03:46:14.161Z,17.30
2022-08-19T03:47:14.237Z,17.30
2022-08-19T03:48:14.328Z,17.28
2022-08-19T03:49:14.743Z,17.28
2022-08-19T03:50:14.515Z,17.28
2022-08-19T03:51:14.563Z,17.27
2022-08-19T03:52:14.672Z,17.24
2022-08-19T03:53:14.750Z,17.18
2022-08-19T03:54:14.855Z,17.18
2022-08-19T03:55:14.954Z,17.17
2022-08-19T03:56:15.025Z,17.15
2022-08-19T03:57:15.101Z,17.12
2022-08-19T03:58:15.207Z,17.12
2022-08-19T03:59:15.282Z,17.14
2022-08-19T04:00:15.398Z,17.15
2022-08-19T04:01:15.545Z,17.14
2022-08-19T04:02:15.568Z,17.14
2022-08-19T04:03:15.641Z,17.14
2022-08-19T04:04:15.722Z,17.10
2022-08-19T04:05:15.808Z,17.12
2022-08-19T04:06:15.878Z,17.10
2022-08-19T04:07:15.950Z,17.10
2022-08-19T04:08:16.063Z,17.09
2022-08-19T04:09:16.136Z,17.09
2022-08-19T04:10:16.267Z,17.10
2022-08-19T04:11:16.326Z,17.12
2022-08-19T04:12:16.425Z,17.12
2022-08-19T04:13:16.500Z,17.15
2022-08-19T04:14:16.614Z,17.14
2022-08-19T04:15:16.713Z,17.15
2022-08-19T04:16:16.774Z,17.15
2022-08-19T04:17:16.855Z,17.15
2022-08-19T04:18:16.919Z,17.17
2022-08-19T04:19:16.989Z,17.15
2022-08-19T04:20:17.102Z,17.15
2022-08-19T04:21:17.136Z,17.15
2022-08-19T04:22:17.237Z,17.15
2022-08-19T04:23:17.312Z,17.17
2022-08-19T04:24:17.399Z,17.17
2022-08-19T04:25:17.489Z,17.17
2022-08-19T04:26:17.562Z,17.18
2022-08-19T04:27:17.636Z,17.20
2022-08-19T04:28:17.737Z,17.20
2022-08-19T04:29:17.813Z,17.21
2022-08-19T04:30:17.916Z,17.20
2022-08-19T04:31:17.984Z,17.15
2022-08-19T04:32:18.084Z,17.21
2022-08-19T04:33:18.132Z,17.20
2022-08-19T04:34:18.236Z,17.17
2022-08-19T04:35:21.013Z,17.20
2022-08-19T04:36:18.403Z,17.14
2022-08-19T04:37:18.481Z,17.10
2022-08-19T04:38:18.571Z,17.09
2022-08-19T04:39:18.647Z,17.09
2022-08-19T04:40:18.776Z,17.09
2022-08-19T04:41:18.819Z,17.07
2022-08-19T04:42:18.911Z,17.07
2022-08-19T04:43:18.986Z,17.07
2022-08-19T04:44:19.091Z,17.07
2022-08-19T04:45:19.437Z,17.10
2022-08-19T04:46:39.416Z,17.10
2022-08-19T04:47:19.347Z,17.12
2022-08-19T04:48:26.207Z,17.14
2022-08-19T04:49:19.502Z,17.15
2022-08-19T04:50:19.599Z,17.18
2022-08-19T04:51:19.634Z,17.21
2022-08-19T04:52:19.699Z,17.22
2022-08-19T04:53:19.771Z,17.25
2022-08-19T04:54:31.015Z,17.27
2022-08-19T04:55:19.973Z,17.30
2022-08-19T04:56:20.034Z,17.33
2022-08-19T04:57:20.108Z,17.35
2022-08-19T04:58:20.190Z,17.36
2022-08-19T04:59:20.273Z,17.38
2022-08-19T05:00:20.369Z,17.39
2022-08-19T05:01:20.470Z,17.42
2022-08-19T05:02:20.505Z,17.43
2022-08-19T05:03:20.588Z,17.45
2022-08-19T05:04:21.437Z,17.45
2022-08-19T05:05:20.798Z,17.46
2022-08-19T05:06:20.798Z,17.46
2022-08-19T05:07:20.913Z,17.46
2022-08-19T05:08:31.075Z,17.47
2022-08-19T05:09:21.078Z,17.49
2022-08-19T05:10:21.176Z,17.54
2022-08-19T05:11:25.888Z,17.57
2022-08-19T05:12:21.310Z,17.60
2022-08-19T05:13:21.380Z,17.62
2022-08-19T05:14:21.455Z,17.62
2022-08-19T05:15:21.572Z,17.66
2022-08-19T05:16:21.647Z,17.70
2022-08-19T05:17:27.543Z,17.73
2022-08-19T05:18:21.822Z,17.73
2022-08-19T05:19:21.890Z,17.74
2022-08-19T05:20:21.982Z,17.74
2022-08-19T05:21:22.047Z,17.76
2022-08-19T05:22:22.092Z,17.77
2022-08-19T05:23:22.929Z,17.80
2022-08-19T05:24:22.245Z,17.79
2022-08-19T05:25:22.370Z,17.81
2022-08-19T05:26:22.403Z,17.83
2022-08-19T05:27:22.489Z,17.86
2022-08-19T05:28:22.554Z,17.87
2022-08-19T05:29:22.648Z,17.86
2022-08-19T05:30:33.545Z,17.84
2022-08-19T05:31:22.810Z,17.83
2022-08-19T05:32:22.885Z,17.84
2022-08-19T05:33:22.966Z,17.84
2022-08-19T05:34:23.041Z,17.83
2022-08-19T05:35:23.129Z,17.81
2022-08-19T05:36:23.167Z,17.80
2022-08-19T05:37:23.280Z,17.80
2022-08-19T05:38:23.347Z,17.80
2022-08-19T05:39:23.457Z,17.83
2022-08-19T05:40:23.599Z,17.86
2022-08-19T05:41:23.611Z,17.86
2022-08-19T05:42:23.703Z,17.87
2022-08-19T05:43:23.781Z,17.92
2022-08-19T05:44:23.851Z,17.94
2022-08-19T05:45:23.976Z,17.96
2022-08-19T05:46:28.068Z,17.99
2022-08-19T05:47:24.361Z,18.04
2022-08-19T05:48:24.205Z,18.07
2022-08-19T05:49:24.306Z,18.09
2022-08-19T05:50:24.405Z,18.13
2022-08-19T05:51:28.836Z,18.14
2022-08-19T05:52:25.998Z,18.19
2022-08-19T05:53:24.629Z,18.19
2022-08-19T05:54:24.718Z,18.20
2022-08-19T05:55:24.801Z,18.21
2022-08-19T05:56:24.835Z,18.26
2022-08-19T05:57:24.959Z,18.26
2022-08-19T05:58:25.016Z,18.28
2022-08-19T05:59:25.095Z,18.25
2022-08-19T06:00:25.166Z,18.26
2022-08-19T06:01:25.228Z,18.29
2022-08-19T06:02:25.329Z,18.32
2022-08-19T06:03:25.369Z,18.36
2022-08-19T06:04:25.442Z,18.38
2022-08-19T06:05:25.562Z,18.41
2022-08-19T06:06:25.601Z,18.44
2022-08-19T06:07:25.860Z,18.47
2022-08-19T06:08:33.790Z,18.53
2022-08-19T06:09:25.837Z,18.56
2022-08-19T06:10:25.935Z,18.62
2022-08-19T06:11:25.997Z,18.64
2022-08-19T06:12:26.088Z,18.64
2022-08-19T06:13:26.174Z,18.66
2022-08-19T06:14:28.018Z,18.69
2022-08-19T06:15:26.368Z,18.74
2022-08-19T06:16:26.402Z,18.79
2022-08-19T06:17:26.510Z,18.83
2022-08-19T06:18:26.570Z,18.86
2022-08-19T06:19:26.641Z,18.87
2022-08-19T06:20:54.101Z,18.89
2022-08-19T06:21:26.805Z,18.91
2022-08-19T06:22:26.883Z,18.99
2022-08-19T06:23:26.987Z,19.05
2022-08-19T06:24:27.073Z,19.10
2022-08-19T06:25:30.479Z,19.16
2022-08-19T06:26:27.233Z,19.24
2022-08-19T06:27:27.327Z,19.28
2022-08-19T06:28:27.406Z,19.34
2022-08-19T06:29:27.498Z,19.43
2022-08-19T06:30:27.589Z,19.57
2022-08-19T06:31:27.660Z,19.75
2022-08-19T06:32:27.726Z,19.97
2022-08-19T06:33:27.825Z,20.19
2022-08-19T06:34:27.899Z,20.44
2022-08-19T06:35:27.987Z,20.78
2022-08-19T06:36:28.060Z,21.08
2022-08-19T06:37:28.166Z,21.36
2022-08-19T06:38:28.201Z,21.58
2022-08-19T06:39:28.300Z,21.77
2022-08-19T06:40:28.402Z,22.02
2022-08-19T06:41:28.453Z,22.19
2022-08-19T06:42:28.537Z,22.14
2022-08-19T06:43:29.194Z,22.14
2022-08-19T06:44:28.702Z,22.23
2022-08-19T06:45:34.585Z,22.29
2022-08-19T06:46:28.862Z,22.29
2022-08-19T06:47:29.200Z,22.36
2022-08-19T06:48:29.030Z,22.49
2022-08-19T06:49:29.114Z,22.54
2022-08-19T06:50:29.213Z,22.60
2022-08-19T06:51:29.279Z,22.66
2022-08-19T06:52:29.371Z,22.69
2022-08-19T06:53:29.536Z,22.72
2022-08-19T06:54:30.823Z,22.81
2022-08-19T06:55:29.659Z,22.86
2022-08-19T06:56:29.696Z,23.00
2022-08-19T06:57:29.798Z,23.14
2022-08-19T06:58:29.857Z,23.16
2022-08-19T06:59:29.940Z,23.19
2022-08-19T07:01:30.109Z,23.45
2022-08-19T07:02:30.181Z,23.53
2022-08-19T07:03:30.275Z,23.60
2022-08-19T07:04:30.748Z,23.60
2022-08-19T07:05:30.465Z,23.68
2022-08-19T07:06:43.424Z,23.74
2022-08-19T07:07:30.607Z,23.92
2022-08-19T07:08:30.801Z,24.09
2022-08-19T07:09:30.771Z,24.26
2022-08-19T07:10:30.874Z,24.53
2022-08-19T07:11:30.931Z,24.66
2022-08-19T07:12:31.052Z,24.82
2022-08-19T07:13:31.105Z,24.97
2022-08-19T07:14:31.184Z,25.20
2022-08-19T07:15:31.289Z,25.46
2022-08-19T07:16:31.386Z,25.66
2022-08-19T07:17:31.426Z,25.78
2022-08-19T07:18:31.543Z,26.17
2022-08-19T07:19:31.575Z,26.59
2022-08-19T07:20:31.663Z,26.81
2022-08-19T07:21:31.731Z,26.61
2022-08-19T07:22:31.820Z,26.35
2022-08-19T07:23:31.936Z,26.46
2022-08-19T07:24:33.707Z,26.54
2022-08-19T07:25:33.377Z,26.76
2022-08-19T07:26:32.159Z,26.90
2022-08-19T07:27:33.639Z,26.83
2022-08-19T07:28:32.330Z,26.65
2022-08-19T07:29:32.430Z,26.61
2022-08-19T07:30:32.526Z,26.93
2022-08-19T07:31:32.613Z,27.28
2022-08-19T07:32:32.727Z,27.63
2022-08-19T07:33:32.773Z,27.96
2022-08-19T07:34:32.824Z,28.06
2022-08-19T07:35:32.950Z,28.02
2022-08-19T07:36:32.992Z,28.18
2022-08-19T07:37:33.634Z,28.25
2022-08-19T07:38:33.158Z,28.39
2022-08-19T07:39:33.285Z,28.48
2022-08-19T07:40:33.355Z,28.13
2022-08-19T07:41:33.425Z,28.11
2022-08-19T07:42:33.496Z,27.96
2022-08-19T07:43:35.205Z,27.91
2022-08-19T07:44:33.740Z,27.81
2022-08-19T07:45:33.778Z,28.06
2022-08-19T07:46:33.846Z,28.24
2022-08-19T07:47:48.841Z,28.03
2022-08-19T07:48:34.031Z,28.11
2022-08-19T07:49:34.141Z,28.20
2022-08-19T07:50:34.238Z,28.06
2022-08-19T07:51:36.307Z,27.77
2022-08-19T07:52:34.375Z,27.62
2022-08-19T07:53:39.149Z,27.50
2022-08-19T07:54:34.540Z,27.58
2022-08-19T07:55:41.929Z,27.55
2022-08-19T07:56:34.702Z,27.40
2022-08-19T07:57:34.857Z,27.25
2022-08-19T07:58:34.854Z,27.08
2022-08-19T07:59:34.927Z,27.13
2022-08-19T08:00:35.046Z,27.13
2022-08-19T08:01:35.149Z,27.20
2022-08-19T08:02:35.221Z,27.11
2022-08-19T08:03:35.294Z,27.23
2022-08-19T08:04:35.381Z,27.42
2022-08-19T08:05:35.745Z,27.48
2022-08-19T08:06:35.545Z,27.59
2022-08-19T08:07:35.617Z,27.59
2022-08-19T08:08:35.704Z,27.65
2022-08-19T08:09:35.777Z,27.74
2022-08-19T08:10:35.973Z,27.69
2022-08-19T08:11:35.935Z,27.45
2022-08-19T08:12:36.020Z,27.53
2022-08-19T08:13:36.092Z,27.61
2022-08-19T08:14:36.193Z,27.52
2022-08-19T08:15:41.378Z,27.76
2022-08-19T08:16:39.529Z,28.20
2022-08-19T08:17:48.853Z,28.51
2022-08-19T08:18:36.503Z,28.55
2022-08-19T08:19:36.578Z,28.39
2022-08-19T08:20:36.697Z,28.52
2022-08-19T08:21:36.776Z,28.65
2022-08-19T08:22:36.859Z,28.69
2022-08-19T08:23:36.930Z,28.85
2022-08-19T08:24:37.021Z,28.91
2022-08-19T08:25:37.108Z,29.33
2022-08-19T08:26:37.182Z,29.73
2022-08-19T08:27:37.234Z,30.06
2022-08-19T08:28:37.306Z,30.44
2022-08-19T08:29:37.380Z,30.67
2022-08-19T08:30:37.499Z,30.68
2022-08-19T08:31:37.540Z,30.63
2022-08-19T08:32:37.637Z,30.79
2022-08-19T08:33:37.706Z,30.61
2022-08-19T08:34:37.783Z,30.23
2022-08-19T08:35:37.867Z,30.26
2022-08-19T08:36:37.936Z,30.40
2022-08-19T08:37:38.025Z,30.59
2022-08-19T08:38:40.283Z,30.63
2022-08-19T08:39:38.211Z,30.53
2022-08-19T08:40:38.275Z,30.32
2022-08-19T08:41:38.306Z,30.22
2022-08-19T08:42:38.402Z,30.59
2022-08-19T08:43:38.480Z,30.63
2022-08-19T08:44:38.580Z,30.66
2022-08-19T08:45:40.892Z,30.66
2022-08-19T08:46:38.759Z,30.97
2022-08-19T08:47:38.830Z,31.09
2022-08-19T08:48:38.937Z,31.16
2022-08-19T08:49:39.014Z,31.28
2022-08-19T08:50:39.115Z,31.57
2022-08-19T08:51:39.146Z,31.75
2022-08-19T08:52:39.444Z,31.75
2022-08-19T08:53:41.767Z,31.94
2022-08-19T08:54:39.415Z,32.05
2022-08-19T08:55:39.510Z,32.43
2022-08-19T08:56:39.591Z,32.62
2022-08-19T08:57:41.046Z,32.66
2022-08-19T08:58:39.757Z,32.71
2022-08-19T08:59:39.834Z,32.53
2022-08-19T09:00:39.963Z,32.27
2022-08-19T09:01:40.022Z,32.02
2022-08-19T09:02:40.085Z,31.46
2022-08-19T09:03:40.161Z,31.09
2022-08-19T09:04:40.255Z,30.67
2022-08-19T09:05:48.373Z,30.22
2022-08-19T09:06:40.673Z,30.51
2022-08-19T09:07:42.787Z,31.12
2022-08-19T09:08:40.554Z,31.59
2022-08-19T09:09:42.076Z,32.13
2022-08-19T09:10:44.710Z,32.49
2022-08-19T09:11:42.585Z,32.81
2022-08-19T09:12:42.866Z,32.95
2022-08-19T09:13:40.976Z,32.83
2022-08-19T09:14:50.130Z,33.07
2022-08-19T09:15:41.296Z,33.37
2022-08-19T09:16:41.214Z,33.72
2022-08-19T09:17:41.315Z,33.70
2022-08-19T09:18:41.376Z,33.24
2022-08-19T09:19:41.475Z,32.62
2022-08-19T09:20:41.575Z,32.34
2022-08-19T09:21:41.622Z,32.47
2022-08-19T09:22:41.699Z,32.61
2022-08-19T09:23:41.794Z,32.63
2022-08-19T09:24:41.855Z,32.78
2022-08-19T09:25:41.970Z,33.12
2022-08-19T09:26:48.676Z,33.33
2022-08-19T09:27:43.614Z,33.18
2022-08-19T09:28:42.209Z,33.05
2022-08-19T09:29:42.308Z,33.11
2022-08-19T09:30:42.397Z,32.78
2022-08-19T09:31:42.484Z,32.96
2022-08-19T09:32:42.558Z,33.41
2022-08-19T09:33:42.642Z,33.92
2022-08-19T09:34:44.026Z,34.60
2022-08-19T09:35:43.873Z,35.15
2022-08-19T09:36:42.904Z,35.43
2022-08-19T09:37:51.778Z,35.92
2022-08-19T09:38:43.484Z,35.42
2022-08-19T09:39:43.232Z,34.58
2022-08-19T09:40:43.262Z,34.61
2022-08-19T09:41:47.443Z,34.99
2022-08-19T09:42:50.169Z,35.40
2022-08-19T09:43:44.252Z,35.77
2022-08-19T09:44:43.609Z,35.78
2022-08-19T09:45:43.690Z,35.10
2022-08-19T09:46:43.762Z,34.86
2022-08-19T09:47:43.865Z,35.02
2022-08-19T09:48:43.936Z,35.07
2022-08-19T09:49:44.034Z,35.25
2022-08-19T09:50:51.414Z,35.29
2022-08-19T09:51:46.836Z,34.75
2022-08-19T09:52:55.613Z,34.56
2022-08-19T09:53:44.353Z,34.37
2022-08-19T09:54:44.420Z,34.23
2022-08-19T09:55:44.540Z,34.49
2022-08-19T09:56:44.595Z,34.45
2022-08-19T09:57:44.697Z,34.61
2022-08-19T09:58:44.769Z,34.63
2022-08-19T09:59:44.868Z,34.42
2022-08-19T10:00:44.938Z,34.75
2022-08-19T10:01:45.069Z,35.17
2022-08-19T10:02:45.828Z,35.59
2022-08-19T10:03:45.169Z,35.74
2022-08-19T10:04:45.245Z,35.36
2022-08-19T10:05:45.359Z,35.28
2022-08-19T10:06:46.902Z,34.69
2022-08-19T10:07:45.504Z,34.18
2022-08-19T10:08:50.180Z,33.34
2022-08-19T10:09:45.679Z,32.47
2022-08-19T10:10:46.358Z,31.98
2022-08-19T10:11:52.692Z,31.90
2022-08-19T10:12:45.940Z,31.99
2022-08-19T10:13:46.043Z,32.29
2022-08-19T10:14:46.115Z,32.32
2022-08-19T10:15:48.088Z,32.80
2022-08-19T10:16:46.285Z,32.90
2022-08-19T10:17:47.586Z,33.14
2022-08-19T10:18:49.605Z,33.55
2022-08-19T10:19:55.638Z,33.44
2022-08-19T10:20:46.666Z,33.40
2022-08-19T10:21:46.741Z,33.43
2022-08-19T10:22:46.810Z,33.62
2022-08-19T10:23:46.915Z,33.82
2022-08-19T10:24:46.987Z,34.14
2022-08-19T10:25:47.076Z,33.84
2022-08-19T10:26:47.133Z,33.44
2022-08-19T10:27:51.472Z,33.53
2022-08-19T10:28:47.314Z,33.62
2022-08-19T10:29:47.407Z,33.56
2022-08-19T10:30:47.500Z,33.24
2022-08-19T10:32:01.058Z,32.99
2022-08-19T10:32:47.662Z,32.76
2022-08-19T10:33:53.573Z,32.76
2022-08-19T10:34:48.205Z,32.72
2022-08-19T10:35:56.841Z,32.95
2022-08-19T10:36:53.786Z,33.17
2022-08-19T10:37:57.237Z,32.91
2022-08-19T10:38:53.464Z,32.35
2022-08-19T10:39:48.295Z,32.13
2022-08-19T10:40:48.338Z,32.06
2022-08-19T10:41:48.405Z,32.03
2022-08-19T10:42:48.476Z,31.92
2022-08-19T10:43:48.578Z,31.74
2022-08-19T10:44:48.655Z,31.54
2022-08-19T10:45:52.660Z,31.45
2022-08-19T10:46:49.009Z,31.27
2022-08-19T10:47:48.905Z,31.31
2022-08-19T10:48:48.943Z,31.31
2022-08-19T10:49:49.028Z,31.18
2022-08-19T10:50:49.138Z,31.18
2022-08-19T10:51:49.188Z,31.19
2022-08-19T10:52:50.606Z,31.03
2022-08-19T10:53:49.360Z,30.94
2022-08-19T10:54:49.427Z,30.90
2022-08-19T10:55:49.544Z,30.75
2022-08-19T10:56:49.617Z,30.64
2022-08-19T10:58:02.165Z,30.60
2022-08-19T10:58:49.807Z,30.51
2022-08-19T10:59:49.879Z,30.45
2022-08-19T11:00:50.015Z,30.48
2022-08-19T11:01:50.042Z,30.37
2022-08-19T11:02:50.134Z,30.28
2022-08-19T11:03:50.306Z,30.22
2022-08-19T11:04:50.298Z,30.19
2022-08-19T11:05:50.417Z,30.03
2022-08-19T11:06:50.482Z,29.86
2022-08-19T11:07:50.585Z,29.82
2022-08-19T11:08:50.653Z,29.91
2022-08-19T11:09:50.742Z,30.01
2022-08-19T11:10:50.827Z,30.04
2022-08-19T11:11:50.909Z,30.08
2022-08-19T11:12:50.987Z,30.11
2022-08-19T11:13:51.086Z,30.10
2022-08-19T11:14:51.158Z,30.06
2022-08-19T11:15:51.272Z,29.95
2022-08-19T11:16:51.339Z,29.99
2022-08-19T11:17:51.436Z,29.74
2022-08-19T11:18:51.516Z,29.62
2022-08-19T11:19:51.603Z,29.58
2022-08-19T11:20:51.675Z,29.69
2022-08-19T11:21:51.744Z,29.81
2022-08-19T11:22:51.814Z,29.91
2022-08-19T11:23:51.914Z,29.94
2022-08-19T11:24:51.984Z,29.92
2022-08-19T11:25:52.089Z,29.99
2022-08-19T11:26:52.153Z,29.89
2022-08-19T11:27:52.372Z,29.74
2022-08-19T11:28:52.315Z,29.55
2022-08-19T11:29:52.414Z,29.63
2022-08-19T11:30:52.499Z,29.71
2022-08-19T11:31:52.566Z,29.81
2022-08-19T11:32:52.637Z,29.79
2022-08-19T11:33:52.738Z,29.78
2022-08-19T11:34:52.814Z,29.60
2022-08-19T11:35:52.927Z,29.39
2022-08-19T11:36:53.001Z,29.27
2022-08-19T11:37:53.356Z,29.21
2022-08-19T11:38:53.156Z,29.23
2022-08-19T11:39:53.638Z,29.29
2022-08-19T11:40:53.328Z,29.29
2022-08-19T11:41:53.401Z,29.36
2022-08-19T11:42:53.465Z,29.41
2022-08-19T11:43:53.565Z,29.47
2022-08-19T11:44:53.635Z,29.45
2022-08-19T11:45:53.743Z,29.41
2022-08-19T11:46:53.809Z,29.20
2022-08-19T11:47:54.147Z,29.12
2022-08-19T11:48:53.967Z,29.07
2022-08-19T11:49:54.061Z,29.07
2022-08-19T11:50:54.184Z,29.08
2022-08-19T11:51:54.248Z,29.18
2022-08-19T11:52:54.318Z,29.30
2022-08-19T11:53:54.418Z,29.44
2022-08-19T11:54:54.488Z,29.54
2022-08-19T11:55:54.597Z,29.58
2022-08-19T11:56:54.665Z,29.66
2022-08-19T11:57:54.910Z,29.78
2022-08-19T11:58:54.835Z,29.85
2022-08-19T11:59:54.921Z,29.94
2022-08-19T12:00:54.986Z,29.99
2022-08-19T12:01:55.056Z,29.94
2022-08-19T12:02:55.122Z,29.97
2022-08-19T12:03:55.231Z,30.06
2022-08-19T12:04:55.295Z,30.07
2022-08-19T12:05:55.417Z,30.10
2022-08-19T12:06:55.452Z,30.18
2022-08-19T12:07:55.789Z,30.06
2022-08-19T12:08:55.624Z,29.88
2022-08-19T12:09:55.714Z,29.81
2022-08-19T12:10:55.800Z,29.79
2022-08-19T12:11:55.866Z,29.70
2022-08-19T12:12:59.011Z,29.62
2022-08-19T12:13:56.026Z,29.57
2022-08-19T12:14:56.098Z,29.47
2022-08-19T12:15:56.220Z,29.44
2022-08-19T12:16:56.255Z,29.36
2022-08-19T12:17:56.354Z,29.10
2022-08-19T12:18:56.425Z,29.08
2022-08-19T12:19:56.522Z,29.25
2022-08-19T12:20:56.616Z,29.32
2022-08-19T12:21:56.683Z,29.35
2022-08-19T12:22:56.755Z,29.36
2022-08-19T12:23:56.854Z,29.39
2022-08-19T12:24:56.924Z,29.47
2022-08-19T12:25:57.038Z,29.49
2022-08-19T12:26:57.103Z,29.57
2022-08-19T12:27:57.822Z,29.54
2022-08-19T12:28:57.287Z,29.58
2022-08-19T12:29:57.379Z,29.58
2022-08-19T12:30:57.459Z,29.52
2022-08-19T12:31:57.535Z,29.55
2022-08-19T12:32:57.610Z,29.60
2022-08-19T12:33:57.688Z,29.54
2022-08-19T12:34:57.763Z,29.45
2022-08-19T12:35:58.045Z,29.39
2022-08-19T12:36:57.928Z,29.33
2022-08-19T12:37:58.200Z,29.37
2022-08-19T12:38:58.053Z,29.42
2022-08-19T12:39:58.213Z,29.45
2022-08-19T12:41:00.265Z,29.42
2022-08-19T12:41:58.287Z,29.36
2022-08-19T12:42:58.361Z,29.30
2022-08-19T12:43:58.458Z,29.36
2022-08-19T12:44:58.523Z,29.42
2022-08-19T12:45:58.651Z,29.47
2022-08-19T12:46:58.691Z,29.52
2022-08-19T12:47:58.774Z,29.55
2022-08-19T12:48:58.865Z,29.62
2022-08-19T12:49:58.939Z,29.55
2022-08-19T12:50:59.024Z,29.55
2022-08-19T12:51:59.100Z,29.45
2022-08-19T12:52:59.156Z,29.18
2022-08-19T12:53:59.260Z,29.17
2022-08-19T12:54:59.350Z,29.17